createdAt,value
2022-12-18T00:01:24.886Z,21.52
2022-12-18T00:03:53.404Z,19.73
2022-12-18T00:06:22.884Z,22.15
2022-12-18T00:08:49.930Z,20.83
2022-12-18T00:11:19.064Z,21.13
2022-12-18T00:13:45.980Z,20.45
2022-12-18T00:16:16.241Z,22.38
2022-12-18T00:21:12.271Z,20.98
2022-12-18T00:23:40.515Z,21.42
2022-12-18T00:26:26.348Z,23.35
2022-12-18T00:28:53.893Z,20.77
2022-12-18T00:31:22.705Z,23.50
2022-12-18T00:33:50.073Z,22.20
2022-12-18T00:36:27.006Z,24.02
2022-12-18T00:38:55.387Z,22.50
2022-12-18T00:41:41.090Z,21.40
2022-12-18T00:44:10.412Z,23.83
2022-12-18T00:46:37.079Z,21.67
2022-12-18T00:49:03.935Z,24.27
2022-12-18T00:51:30.736Z,23.17
2022-12-18T00:53:57.422Z,23.52
2022-12-18T00:56:24.924Z,21.90
2022-12-18T00:58:51.782Z,23.42
2022-12-18T01:01:19.093Z,23.00
2022-12-18T01:03:48.620Z,23.80
2022-12-18T01:06:16.430Z,23.07
2022-12-18T01:08:43.687Z,22.80
2022-12-18T01:11:21.179Z,22.10
2022-12-18T01:13:48.525Z,22.35
2022-12-18T01:16:17.277Z,24.63
2022-12-18T01:18:44.291Z,22.15
2022-12-18T01:21:15.163Z,22.83
2022-12-18T01:23:42.514Z,22.98
2022-12-18T01:26:11.931Z,22.20
2022-12-18T01:28:38.787Z,22.83
2022-12-18T01:31:18.306Z,22.15
2022-12-18T01:33:48.839Z,21.88
2022-12-18T01:36:17.529Z,21.98
2022-12-18T01:38:44.350Z,20.42
2022-12-18T01:41:11.680Z,23.05
2022-12-18T01:43:58.939Z,21.05
2022-12-18T01:46:27.788Z,20.40
2022-12-18T01:49:02.514Z,19.85
2022-12-18T01:51:30.824Z,21.27
2022-12-18T01:53:59.980Z,22.27
2022-12-18T01:56:26.802Z,21.83
2022-12-18T01:59:02.025Z,20.77
2022-12-18T02:01:31.052Z,20.25
2022-12-18T02:04:14.695Z,20.52
2022-12-18T02:06:43.964Z,21.23
2022-12-18T02:09:23.207Z,21.40
2022-12-18T02:12:19.638Z,21.67
2022-12-18T02:15:25.040Z,22.00
2022-12-18T02:17:57.782Z,20.95
2022-12-18T02:20:34.441Z,19.85
2022-12-18T02:23:25.370Z,21.40
2022-12-18T02:26:11.271Z,20.13
2022-12-18T02:29:10.730Z,21.92
2022-12-18T02:31:41.745Z,20.97
2022-12-18T02:34:10.072Z,20.85
2022-12-18T02:36:40.028Z,21.17
2022-12-18T02:39:09.973Z,21.65
2022-12-18T02:41:37.603Z,21.05
2022-12-18T02:44:09.882Z,21.50
2022-12-18T02:46:42.572Z,21.35
2022-12-18T02:49:39.641Z,20.52
2022-12-18T02:52:29.672Z,19.83
2022-12-18T02:55:19.860Z,21.02
2022-12-18T02:58:14.993Z,21.88
2022-12-18T03:00:54.174Z,20.52
2022-12-18T03:03:31.101Z,19.60
2022-12-18T03:06:16.100Z,20.60
2022-12-18T03:08:48.262Z,21.98
2022-12-18T03:11:16.236Z,21.75
2022-12-18T03:14:04.929Z,21.00
2022-12-18T03:16:34.996Z,19.65
2022-12-18T03:19:23.211Z,20.73
2022-12-18T03:21:56.649Z,18.48
2022-12-18T03:24:25.180Z,20.83
2022-12-18T03:27:02.801Z,21.10
2022-12-18T03:29:36.965Z,19.85
2022-12-18T03:32:10.578Z,19.77
2022-12-18T03:34:40.811Z,18.58
2022-12-18T03:39:35.886Z,19.00
2022-12-18T03:42:16.859Z,19.15
2022-12-18T03:45:04.921Z,19.85
2022-12-18T03:47:53.472Z,19.13
2022-12-18T03:50:32.071Z,19.33
2022-12-18T03:53:09.413Z,19.63
2022-12-18T03:55:36.983Z,18.60
2022-12-18T03:58:05.869Z,17.58
2022-12-18T04:00:33.957Z,18.20
2022-12-18T04:03:02.886Z,18.23
2022-12-18T04:05:31.093Z,17.15
2022-12-18T04:07:58.248Z,18.65
2022-12-18T04:10:24.943Z,18.20
2022-12-18T04:12:51.713Z,18.60
2022-12-18T04:15:18.644Z,16.50
2022-12-18T04:17:50.037Z,17.25
2022-12-18T04:20:17.555Z,16.77
2022-12-18T04:22:44.300Z,15.90
2022-12-18T04:25:14.421Z,15.27
2022-12-18T04:27:41.164Z,16.30
2022-12-18T04:30:08.530Z,16.20
2022-12-18T04:32:36.023Z,16.08
2022-12-18T04:35:05.052Z,14.85
2022-12-18T04:37:31.766Z,15.13
2022-12-18T04:39:58.511Z,14.45
2022-12-18T04:42:25.217Z,15.55
2022-12-18T04:44:51.904Z,15.93
2022-12-18T04:47:18.583Z,14.48
2022-12-18T04:49:45.320Z,14.55
2022-12-18T04:52:12.000Z,14.70
2022-12-18T04:54:38.664Z,14.75
2022-12-18T04:57:05.321Z,14.07
2022-12-18T04:59:32.037Z,14.40
2022-12-18T05:01:58.762Z,14.77
2022-12-18T05:04:25.555Z,13.80
2022-12-18T05:06:52.240Z,13.65
2022-12-18T05:09:18.940Z,13.50
2022-12-18T05:11:47.582Z,15.23
2022-12-18T05:14:14.382Z,13.52
2022-12-18T05:16:41.253Z,12.98
2022-12-18T05:19:07.995Z,13.98
2022-12-18T05:21:34.664Z,14.02
2022-12-18T05:24:01.363Z,12.85
2022-12-18T05:26:28.051Z,13.57
2022-12-18T05:28:57.586Z,13.15
2022-12-18T05:31:24.351Z,12.75
2022-12-18T05:33:51.126Z,13.55
2022-12-18T05:36:17.912Z,12.73
2022-12-18T05:38:44.607Z,12.88
2022-12-18T05:41:11.467Z,13.75
2022-12-18T05:43:41.879Z,13.48
2022-12-18T05:46:13.974Z,13.18
2022-12-18T05:48:40.963Z,12.60
2022-12-18T05:51:13.952Z,13.40
2022-12-18T05:53:41.336Z,13.15
2022-12-18T05:56:11.921Z,13.23
2022-12-18T06:01:19.821Z,13.02
2022-12-18T06:03:47.264Z,12.32
2022-12-18T06:06:26.255Z,12.05
2022-12-18T06:08:53.926Z,12.48
2022-12-18T06:11:23.611Z,12.52
2022-12-18T06:16:25.337Z,11.73
2022-12-18T06:18:52.127Z,12.07
2022-12-18T06:21:18.886Z,12.45
2022-12-18T06:23:45.576Z,13.23
2022-12-18T06:26:13.980Z,12.77
2022-12-18T06:28:40.764Z,11.90
2022-12-18T06:31:08.240Z,12.93
2022-12-18T06:33:35.529Z,11.55
2022-12-18T06:36:03.882Z,10.88
2022-12-18T06:38:30.579Z,12.52
2022-12-18T06:40:57.538Z,11.50
2022-12-18T06:43:24.272Z,11.57
2022-12-18T06:45:53.654Z,12.50
2022-12-18T06:48:21.016Z,12.35
2022-12-18T06:50:48.143Z,12.40
2022-12-18T06:53:14.888Z,11.43
2022-12-18T06:55:41.613Z,12.38
2022-12-18T06:58:08.580Z,11.45
2022-12-18T07:00:37.392Z,11.77
2022-12-18T07:03:04.238Z,13.07
2022-12-18T07:05:31.022Z,12.35
2022-12-18T07:07:57.772Z,11.95
2022-12-18T07:10:24.506Z,11.27
2022-12-18T07:12:51.157Z,11.00
2022-12-18T07:15:17.868Z,12.23
2022-12-18T07:17:44.531Z,12.00
2022-12-18T07:20:11.495Z,11.55
2022-12-18T07:22:38.427Z,13.07
2022-12-18T07:25:05.722Z,11.98
2022-12-18T07:27:32.384Z,11.57
2022-12-18T07:29:59.355Z,11.90
2022-12-18T07:32:26.102Z,11.40
2022-12-18T07:34:52.768Z,10.32
2022-12-18T07:37:19.490Z,11.02
2022-12-18T07:39:46.160Z,12.45
2022-12-18T07:42:33.145Z,10.77
2022-12-18T07:45:01.325Z,10.85
2022-12-18T07:47:29.033Z,11.82
2022-12-18T07:49:56.721Z,11.82
2022-12-18T07:52:26.122Z,12.50
2022-12-18T07:54:53.179Z,11.30
2022-12-18T07:57:41.733Z,11.95
2022-12-18T08:00:07.193Z,12.50
2022-12-18T08:02:34.036Z,11.95
2022-12-18T08:05:01.534Z,11.48
2022-12-18T08:07:28.287Z,11.48
2022-12-18T08:09:54.950Z,11.13
2022-12-18T08:12:21.667Z,12.25
2022-12-18T08:14:48.340Z,11.90
2022-12-18T08:17:15.044Z,11.55
2022-12-18T08:19:41.724Z,12.18
2022-12-18T08:22:08.484Z,11.55
2022-12-18T08:24:35.324Z,11.45
2022-12-18T08:29:48.768Z,11.75
2022-12-18T08:32:15.573Z,11.82
2022-12-18T08:34:42.353Z,11.38
2022-12-18T08:37:09.036Z,11.25
2022-12-18T08:39:35.804Z,11.38
2022-12-18T08:42:21.096Z,11.00
2022-12-18T08:44:47.889Z,11.27
2022-12-18T08:47:14.620Z,11.95
2022-12-18T08:49:41.605Z,11.75
2022-12-18T08:52:08.325Z,11.07
2022-12-18T08:54:35.014Z,10.82
2022-12-18T08:57:01.792Z,11.25
2022-12-18T08:59:29.718Z,12.30
2022-12-18T09:01:56.635Z,11.50
2022-12-18T09:04:23.609Z,11.68
2022-12-18T09:06:50.277Z,11.82
2022-12-18T09:09:17.092Z,11.70
2022-12-18T09:11:43.903Z,11.30
2022-12-18T09:14:11.083Z,11.45
2022-12-18T09:16:37.874Z,11.23
2022-12-18T09:19:05.870Z,11.82
2022-12-18T09:21:36.935Z,11.05
2022-12-18T09:24:05.183Z,11.10
2022-12-18T09:26:36.055Z,11.15
2022-12-18T09:29:03.969Z,11.13
2022-12-18T09:31:30.653Z,11.25
2022-12-18T09:33:57.768Z,11.50
2022-12-18T09:36:24.645Z,10.38
2022-12-18T09:38:51.466Z,11.77
2022-12-18T09:41:48.646Z,11.65
2022-12-18T09:44:29.180Z,11.18
2022-12-18T09:47:07.359Z,12.30
2022-12-18T09:49:47.144Z,10.10
2022-12-18T09:52:42.919Z,11.40
2022-12-18T09:55:37.483Z,12.20
2022-12-18T09:58:34.128Z,11.63
2022-12-18T10:01:00.797Z,11.73
2022-12-18T10:03:27.876Z,11.00
2022-12-18T10:06:23.185Z,11.15
2022-12-18T10:09:02.147Z,11.18
2022-12-18T10:11:42.845Z,11.75
2022-12-18T10:14:49.541Z,11.43
2022-12-18T10:17:28.271Z,11.50
2022-12-18T10:20:03.824Z,11.05
2022-12-18T10:23:01.352Z,11.07
2022-12-18T10:25:46.595Z,10.18
2022-12-18T10:28:18.351Z,10.75
2022-12-18T10:30:45.147Z,11.05
2022-12-18T10:33:20.037Z,12.02
2022-12-18T10:35:49.290Z,11.77
2022-12-18T10:38:17.126Z,12.32
2022-12-18T10:40:57.706Z,10.85
2022-12-18T10:43:35.352Z,10.90
2022-12-18T10:46:11.217Z,11.20
2022-12-18T10:48:50.031Z,10.60
2022-12-18T10:51:24.253Z,11.75
2022-12-18T10:53:56.418Z,12.65
2022-12-18T10:56:24.756Z,13.07
2022-12-18T10:59:01.811Z,11.90
2022-12-18T11:01:29.513Z,18.65
2022-12-18T11:04:02.390Z,16.50
2022-12-18T11:06:30.271Z,13.68
2022-12-18T11:09:20.079Z,14.52
2022-12-18T11:11:55.303Z,14.88
2022-12-18T11:14:26.746Z,16.05
2022-12-18T11:17:24.213Z,16.00
2022-12-18T11:19:42.523Z,18.58
2022-12-18T11:22:31.322Z,14.88
2022-12-18T11:28:02.723Z,14.15
2022-12-18T11:30:30.673Z,16.30
2022-12-18T11:33:05.742Z,15.40
2022-12-18T11:35:45.300Z,14.32
2022-12-18T11:38:17.337Z,15.20
2022-12-18T11:40:48.076Z,15.57
2022-12-18T11:43:17.206Z,14.95
2022-12-18T11:45:53.697Z,13.77
2022-12-18T11:48:27.868Z,12.82
2022-12-18T11:50:57.178Z,13.07
2022-12-18T11:53:26.297Z,13.90
2022-12-18T11:56:21.935Z,10.30
2022-12-18T11:58:57.016Z,11.00
2022-12-18T12:01:43.986Z,12.38
2022-12-18T12:04:33.380Z,12.20
2022-12-18T12:07:23.398Z,12.85
2022-12-18T12:10:23.764Z,12.50
2022-12-18T12:13:13.842Z,11.52
2022-12-18T12:15:46.238Z,11.98
2022-12-18T12:18:27.694Z,12.05
2022-12-18T12:21:09.290Z,12.68
2022-12-18T12:23:47.423Z,11.05
2022-12-18T12:26:35.987Z,11.85
2022-12-18T12:29:21.444Z,11.68
2022-12-18T12:32:04.623Z,11.85
2022-12-18T12:35:01.755Z,10.75
2022-12-18T12:37:59.908Z,11.55
2022-12-18T12:43:25.640Z,11.18
2022-12-18T12:45:59.485Z,11.95
2022-12-18T12:48:43.483Z,10.25
2022-12-18T12:51:21.147Z,11.82
2022-12-18T12:53:49.063Z,11.43
2022-12-18T12:56:23.241Z,10.48
2022-12-18T12:59:20.161Z,11.45
2022-12-18T13:02:08.308Z,11.10
2022-12-18T13:04:57.422Z,11.77
2022-12-18T13:07:42.523Z,12.40
2022-12-18T13:10:32.189Z,12.02
2022-12-18T13:16:09.172Z,11.55
2022-12-18T13:18:36.557Z,11.68
2022-12-18T13:21:16.628Z,11.88
2022-12-18T13:23:43.935Z,11.93
2022-12-18T13:26:26.315Z,10.93
2022-12-18T13:28:56.961Z,12.02
2022-12-18T13:31:41.833Z,12.05
2022-12-18T13:34:28.243Z,11.68
2022-12-18T13:36:57.130Z,11.50
2022-12-18T13:39:30.250Z,12.48
2022-12-18T13:42:07.122Z,11.75
2022-12-18T13:44:40.702Z,12.13
2022-12-18T13:47:33.203Z,12.18
2022-12-18T13:50:02.738Z,11.55
2022-12-18T13:52:39.796Z,12.75
2022-12-18T13:55:15.587Z,12.38
2022-12-18T13:57:42.445Z,12.93
2022-12-18T14:00:28.937Z,11.77
2022-12-18T14:02:57.374Z,11.85
2022-12-18T14:05:30.978Z,11.60
2022-12-18T14:08:22.164Z,11.75
2022-12-18T14:10:52.150Z,11.73
2022-12-18T14:13:30.341Z,13.13
2022-12-18T14:15:58.664Z,12.63
2022-12-18T14:18:35.170Z,10.98
2022-12-18T14:21:04.675Z,11.88
2022-12-18T14:23:42.663Z,11.77
2022-12-18T14:26:29.783Z,11.77
2022-12-18T14:28:58.048Z,11.48
2022-12-18T14:31:30.934Z,12.32
2022-12-18T14:33:59.100Z,12.82
2022-12-18T14:36:28.659Z,11.98
2022-12-18T14:39:00.272Z,13.27
2022-12-18T14:41:27.648Z,11.70
2022-12-18T14:43:55.543Z,11.75
2022-12-18T14:46:46.779Z,12.57
2022-12-18T14:49:25.661Z,11.40
2022-12-18T14:51:55.469Z,12.10
2022-12-18T14:54:24.169Z,11.15
2022-12-18T14:56:58.860Z,12.30
2022-12-18T14:59:27.479Z,12.20
2022-12-18T15:02:06.246Z,12.77
2022-12-18T15:04:42.105Z,12.50
2022-12-18T15:07:16.988Z,12.13
2022-12-18T15:10:00.814Z,12.32
2022-12-18T15:13:06.450Z,12.60
2022-12-18T15:15:38.823Z,12.40
2022-12-18T15:18:08.835Z,11.35
2022-12-18T15:20:57.682Z,11.65
2022-12-18T15:23:28.700Z,12.45
2022-12-18T15:25:58.610Z,12.32
2022-12-18T15:28:33.042Z,12.45
2022-12-18T15:31:19.092Z,13.23
2022-12-18T15:34:00.482Z,12.32
2022-12-18T15:36:27.322Z,12.75
2022-12-18T15:39:01.316Z,12.55
2022-12-18T15:41:37.019Z,13.23
2022-12-18T15:44:22.031Z,12.07
2022-12-18T15:46:48.775Z,12.88
2022-12-18T15:49:15.449Z,12.77
2022-12-18T15:51:42.282Z,12.80
2022-12-18T15:54:14.067Z,12.82
2022-12-18T15:57:00.109Z,12.75
2022-12-18T15:59:27.373Z,13.38
2022-12-18T16:01:54.391Z,12.73
2022-12-18T16:04:23.163Z,13.38
2022-12-18T16:07:13.848Z,13.77
2022-12-18T16:09:37.743Z,13.68
2022-12-18T16:12:04.820Z,13.77
2022-12-18T16:14:32.926Z,13.98
2022-12-18T16:17:06.414Z,14.00
2022-12-18T16:19:33.233Z,14.00
2022-12-18T16:22:00.302Z,13.48
2022-12-18T16:24:29.200Z,13.05
2022-12-18T16:26:58.625Z,13.52
2022-12-18T16:29:28.232Z,12.23
2022-12-18T16:31:59.155Z,13.32
2022-12-18T16:34:29.621Z,13.52
2022-12-18T16:37:08.003Z,12.77
2022-12-18T16:39:35.540Z,13.27
2022-12-18T16:42:05.914Z,13.48
2022-12-18T16:44:34.009Z,13.40
2022-12-18T16:47:02.936Z,14.40
2022-12-18T16:49:30.591Z,13.27
2022-12-18T16:51:57.332Z,14.38
2022-12-18T16:54:24.475Z,13.77
2022-12-18T16:56:52.259Z,13.18
2022-12-18T16:59:19.914Z,14.82
2022-12-18T17:01:47.507Z,14.00
2022-12-18T17:04:14.789Z,14.15
2022-12-18T17:06:43.967Z,14.05
2022-12-18T17:09:16.256Z,13.82
2022-12-18T17:11:43.617Z,13.63
2022-12-18T17:14:16.416Z,14.02
2022-12-18T17:16:43.529Z,13.95
2022-12-18T17:19:16.752Z,14.95
2022-12-18T17:21:45.336Z,14.25
2022-12-18T17:24:12.133Z,13.98
2022-12-18T17:26:39.025Z,14.57
2022-12-18T17:29:06.115Z,14.32
2022-12-18T17:31:34.868Z,14.98
2022-12-18T17:34:03.507Z,14.23
2022-12-18T17:36:33.528Z,14.25
2022-12-18T17:39:01.842Z,13.90
2022-12-18T17:41:30.158Z,14.25
2022-12-18T17:44:04.089Z,14.43
2022-12-18T17:46:32.983Z,14.85
2022-12-18T17:49:01.350Z,14.80
2022-12-18T17:51:28.817Z,13.48
2022-12-18T17:53:55.545Z,14.07
2022-12-18T17:56:23.581Z,14.52
2022-12-18T17:58:50.691Z,13.95
2022-12-18T18:01:21.285Z,15.20
2022-12-18T18:03:50.973Z,14.32
2022-12-18T18:06:20.482Z,14.05
2022-12-18T18:08:47.390Z,15.55
2022-12-18T18:11:36.009Z,14.35
2022-12-18T18:14:05.251Z,13.68
2022-12-18T18:17:00.779Z,14.05
2022-12-18T18:19:32.459Z,14.63
2022-12-18T18:21:59.171Z,13.90
2022-12-18T18:24:26.252Z,14.45
2022-12-18T18:26:53.270Z,13.82
2022-12-18T18:29:23.704Z,14.10
2022-12-18T18:31:52.913Z,15.05
2022-12-18T18:34:23.416Z,14.10
2022-12-18T18:36:50.631Z,14.65
2022-12-18T18:39:17.621Z,14.30
2022-12-18T18:41:48.212Z,14.73
2022-12-18T18:44:16.190Z,15.00
2022-12-18T18:46:43.168Z,13.63
2022-12-18T18:49:10.251Z,14.35
2022-12-18T18:51:36.982Z,13.80
2022-12-18T18:54:03.854Z,15.50
2022-12-18T18:59:18.428Z,13.68
2022-12-18T19:01:45.452Z,14.68
2022-12-18T19:04:12.282Z,15.20
2022-12-18T19:06:39.659Z,15.00
2022-12-18T19:09:07.456Z,14.85
2022-12-18T19:11:53.237Z,14.38
2022-12-18T19:14:20.323Z,14.15
2022-12-18T19:16:47.081Z,14.40
2022-12-18T19:19:14.580Z,14.30
2022-12-18T19:21:41.365Z,14.35
2022-12-18T19:24:09.319Z,14.18
2022-12-18T19:26:37.639Z,14.93
2022-12-18T19:29:07.530Z,13.40
2022-12-18T19:31:36.980Z,14.80
2022-12-18T19:34:06.888Z,14.25
2022-12-18T19:36:36.336Z,15.07
2022-12-18T19:39:09.633Z,14.53
2022-12-18T19:41:36.469Z,14.30
2022-12-18T19:44:08.078Z,15.07
2022-12-18T19:46:35.729Z,15.38
2022-12-18T19:49:02.797Z,15.27
2022-12-18T19:51:31.366Z,16.27
2022-12-18T19:54:01.252Z,14.02
2022-12-18T19:58:57.068Z,15.25
2022-12-18T20:01:25.171Z,15.93
2022-12-18T20:03:54.666Z,15.18
2022-12-18T20:06:29.497Z,14.55
2022-12-18T20:09:04.548Z,15.63
2022-12-18T20:11:32.737Z,16.60
2022-12-18T20:13:59.516Z,15.82
2022-12-18T20:16:26.416Z,16.40
2022-12-18T20:18:53.684Z,16.75
2022-12-18T20:21:20.367Z,16.15
2022-12-18T20:23:47.143Z,16.40
2022-12-18T20:26:14.020Z,16.58
2022-12-18T20:28:40.966Z,15.30
2022-12-18T20:31:10.346Z,16.80
2022-12-18T20:33:37.794Z,15.35
2022-12-18T20:36:07.276Z,16.17
2022-12-18T20:38:35.315Z,16.83
2022-12-18T20:41:06.947Z,17.00
2022-12-18T20:43:33.693Z,16.70
2022-12-18T20:46:04.700Z,16.20
2022-12-18T20:48:32.586Z,16.15
2022-12-18T20:51:05.751Z,16.98
2022-12-18T20:53:33.360Z,16.10
2022-12-18T20:56:00.393Z,18.10
2022-12-18T20:58:27.046Z,16.35
2022-12-18T21:01:09.281Z,16.58
2022-12-18T21:03:36.412Z,15.90
2022-12-18T21:06:03.913Z,15.65
2022-12-18T21:08:30.763Z,18.08
2022-12-18T21:11:31.649Z,19.35
2022-12-18T21:13:58.513Z,16.40
2022-12-18T21:16:25.331Z,16.92
2022-12-18T21:18:54.513Z,16.67
2022-12-18T21:21:26.604Z,17.58
2022-12-18T21:23:54.147Z,17.50
2022-12-18T21:26:23.888Z,16.42
2022-12-18T21:28:55.793Z,17.45
2022-12-18T21:31:24.553Z,17.00
2022-12-18T21:33:51.912Z,15.48
2022-12-18T21:36:21.477Z,18.42
2022-12-18T21:38:48.256Z,17.00
2022-12-18T21:41:38.805Z,17.42
2022-12-18T21:44:11.937Z,17.70
2022-12-18T21:46:40.855Z,17.70
2022-12-18T21:49:09.062Z,17.30
2022-12-18T21:51:36.358Z,17.13
2022-12-18T21:54:03.478Z,16.38
2022-12-18T21:56:54.878Z,17.65
2022-12-18T21:59:36.579Z,17.63
2022-12-18T22:02:07.813Z,17.65
2022-12-18T22:04:34.705Z,17.50
2022-12-18T22:07:02.575Z,18.02
2022-12-18T22:09:29.285Z,17.73
2022-12-18T22:11:56.006Z,18.15
2022-12-18T22:14:23.373Z,17.42
2022-12-18T22:16:51.117Z,17.40
2022-12-18T22:19:19.690Z,16.90
2022-12-18T22:21:48.699Z,16.45
2022-12-18T22:24:21.423Z,18.27
2022-12-18T22:26:49.168Z,17.25
2022-12-18T22:29:37.090Z,17.23
2022-12-18T22:32:05.597Z,17.13
2022-12-18T22:34:36.597Z,16.27
2022-12-18T22:37:03.570Z,16.75
2022-12-18T22:39:30.671Z,16.20
2022-12-18T22:41:58.154Z,17.30
2022-12-18T22:44:25.234Z,16.83
2022-12-18T22:47:06.035Z,17.33
2022-12-18T22:49:34.837Z,16.75
2022-12-18T22:52:06.344Z,16.95
2022-12-18T22:54:33.265Z,16.95
2022-12-18T22:56:59.992Z,16.75
2022-12-18T22:59:26.727Z,17.70
2022-12-18T23:01:58.641Z,16.92
2022-12-18T23:04:29.092Z,16.80
2022-12-18T23:07:04.609Z,15.80
2022-12-18T23:09:31.399Z,16.27
2022-12-18T23:11:58.136Z,16.73
2022-12-18T23:14:24.811Z,16.73
2022-12-18T23:16:51.491Z,16.88
2022-12-18T23:19:20.187Z,16.90
2022-12-18T23:21:46.994Z,17.13
2022-12-18T23:24:13.740Z,17.35
2022-12-18T23:26:40.491Z,16.67
2022-12-18T23:29:08.031Z,16.75
2022-12-18T23:31:39.474Z,16.52
2022-12-18T23:34:07.504Z,17.02
2022-12-18T23:36:45.308Z,16.95
2022-12-18T23:39:17.471Z,17.52
2022-12-18T23:41:57.761Z,18.10
2022-12-18T23:44:24.559Z,17.05
2022-12-18T23:46:51.285Z,16.80
2022-12-18T23:49:17.992Z,17.73
2022-12-18T23:51:45.625Z,17.52
2022-12-18T23:54:12.346Z,17.98
2022-12-18T23:56:39.028Z,17.40
2022-12-18T23:59:05.751Z,18.13
